createdAt,value
2022-08-03T00:01:25.998Z,100526.13
2022-08-03T00:03:53.014Z,100535.00
2022-08-03T00:06:19.797Z,100531.25
2022-08-03T00:08:47.391Z,100529.53
2022-08-03T00:11:14.251Z,100519.88
2022-08-03T00:13:41.088Z,100525.69
2022-08-03T00:16:08.102Z,100536.84
2022-08-03T00:18:34.981Z,100530.75
2022-08-03T00:21:03.266Z,100537.44
2022-08-03T00:23:50.896Z,100537.88
2022-08-03T00:26:17.101Z,100537.59
2022-08-03T00:28:43.935Z,100545.94
2022-08-03T00:31:13.580Z,100537.16
2022-08-03T00:33:59.751Z,100545.28
2022-08-03T00:36:28.353Z,100548.94
2022-08-03T00:38:56.497Z,100554.44
2022-08-03T00:41:23.400Z,100551.72
2022-08-03T00:43:50.848Z,100547.91
2022-08-03T00:46:21.773Z,100557.88
2022-08-03T00:48:50.283Z,100546.50
2022-08-03T00:51:18.164Z,100546.06
2022-08-03T00:53:46.108Z,100542.25
2022-08-03T00:56:15.123Z,100544.41
2022-08-03T00:58:44.291Z,100537.19
2022-08-03T01:01:12.571Z,100541.53
2022-08-03T01:03:39.867Z,100552.22
2022-08-03T01:06:19.249Z,100547.84
2022-08-03T01:09:06.806Z,100551.12
2022-08-03T01:12:03.142Z,100556.97
2022-08-03T01:14:38.713Z,100553.75
2022-08-03T01:17:13.686Z,100559.41
2022-08-03T01:19:41.039Z,100564.41
2022-08-03T01:22:18.225Z,100552.88
2022-08-03T01:25:14.132Z,100567.91
2022-08-03T01:28:30.143Z,100566.50
2022-08-03T01:31:02.615Z,100565.75
2022-08-03T01:33:39.492Z,100564.16
2022-08-03T01:36:14.288Z,100561.31
2022-08-03T01:38:47.644Z,100563.16
2022-08-03T01:41:20.423Z,100565.84
2022-08-03T01:44:26.406Z,100562.44
2022-08-03T01:46:40.582Z,100570.50
2022-08-03T01:49:18.385Z,100565.44
2022-08-03T01:52:03.057Z,100557.53
2022-08-03T01:54:43.364Z,100556.91
2022-08-03T01:57:11.929Z,100557.22
2022-08-03T01:59:42.450Z,100558.22
2022-08-03T02:02:15.623Z,100559.34
2022-08-03T02:05:01.766Z,100551.44
2022-08-03T02:07:30.845Z,100555.16
2022-08-03T02:10:00.700Z,100547.25
2022-08-03T02:12:31.581Z,100553.50
2022-08-03T02:15:00.947Z,100555.97
2022-08-03T02:17:40.113Z,100562.09
2022-08-03T02:20:13.027Z,100561.53
2022-08-03T02:22:42.588Z,100557.41
2022-08-03T02:25:12.018Z,100558.47
2022-08-03T02:28:15.707Z,100558.47
2022-08-03T02:30:51.883Z,100559.63
2022-08-03T02:33:33.312Z,100563.34
2022-08-03T02:36:02.974Z,100554.47
2022-08-03T02:38:38.207Z,100568.78
2022-08-03T02:41:13.822Z,100564.66
2022-08-03T02:44:06.639Z,100561.31
2022-08-03T02:46:38.825Z,100567.78
2022-08-03T02:49:50.776Z,100560.00
2022-08-03T02:51:58.397Z,100568.16
2022-08-03T02:54:28.596Z,100564.97
2022-08-03T02:56:59.271Z,100565.97
2022-08-03T02:59:31.429Z,100561.75
2022-08-03T03:02:01.835Z,100575.28
2022-08-03T03:04:32.987Z,100564.75
2022-08-03T03:07:04.454Z,100556.63
2022-08-03T03:09:41.658Z,100565.63
2022-08-03T03:12:13.584Z,100571.88
2022-08-03T03:14:41.029Z,100568.31
2022-08-03T03:17:12.353Z,100576.37
2022-08-03T03:19:40.937Z,100571.38
2022-08-03T03:22:08.653Z,100568.69
2022-08-03T03:24:36.453Z,100572.28
2022-08-03T03:27:04.072Z,100575.13
2022-08-03T03:29:32.750Z,100570.88
2022-08-03T03:32:09.263Z,100578.59
2022-08-03T03:34:37.441Z,100574.31
2022-08-03T03:37:05.244Z,100573.69
2022-08-03T03:39:32.404Z,100577.38
2022-08-03T03:42:00.978Z,100574.31
2022-08-03T03:44:31.140Z,100569.59
2022-08-03T03:46:58.790Z,100576.84
2022-08-03T03:49:27.104Z,100575.53
2022-08-03T03:51:55.245Z,100585.78
2022-08-03T03:54:22.637Z,100582.50
2022-08-03T03:56:52.470Z,100582.28
2022-08-03T03:59:19.394Z,100575.63
2022-08-03T04:01:46.480Z,100577.28
2022-08-03T04:04:31.991Z,100586.25
2022-08-03T04:07:17.687Z,100581.00
2022-08-03T04:10:14.212Z,100587.25
2022-08-03T04:12:50.487Z,100591.38
2022-08-03T04:15:23.003Z,100596.41
2022-08-03T04:17:53.516Z,100594.13
2022-08-03T04:20:22.982Z,100600.31
2022-08-03T04:22:52.975Z,100604.69
2022-08-03T04:25:23.162Z,100603.59
2022-08-03T04:28:08.076Z,100605.03
2022-08-03T04:30:47.529Z,100611.88
2022-08-03T04:33:16.372Z,100613.16
2022-08-03T04:36:01.322Z,100610.19
2022-08-03T04:38:32.972Z,100609.91
2022-08-03T04:41:01.572Z,100613.97
2022-08-03T04:43:32.826Z,100602.81
2022-08-03T04:46:00.290Z,100616.69
2022-08-03T04:48:28.375Z,100615.28
2022-08-03T04:50:55.417Z,100623.75
2022-08-03T04:53:22.633Z,100625.03
2022-08-03T04:55:50.243Z,100628.19
2022-08-03T04:58:17.599Z,100629.53
2022-08-03T05:00:45.703Z,100633.66
2022-08-03T05:03:23.612Z,100636.69
2022-08-03T05:06:02.004Z,100638.81
2022-08-03T05:08:46.053Z,100640.87
2022-08-03T05:11:17.315Z,100638.47
2022-08-03T05:13:45.244Z,100635.16
2022-08-03T05:16:13.943Z,100633.87
2022-08-03T05:18:42.130Z,100644.03
2022-08-03T05:21:16.946Z,100646.16
2022-08-03T05:23:45.065Z,100655.44
2022-08-03T05:26:12.176Z,100650.44
2022-08-03T05:28:39.976Z,100649.22
2022-08-03T05:31:18.234Z,100651.50
2022-08-03T05:33:45.128Z,100650.84
2022-08-03T05:36:12.697Z,100653.22
2022-08-03T05:38:39.743Z,100653.72
2022-08-03T05:41:22.169Z,100655.81
2022-08-03T05:43:52.659Z,100656.06
2022-08-03T05:46:20.697Z,100663.56
2022-08-03T05:48:48.128Z,100662.94
2022-08-03T05:51:15.016Z,100665.16
2022-08-03T05:53:43.372Z,100665.41
2022-08-03T05:56:15.036Z,100667.81
2022-08-03T05:58:47.468Z,100660.91
2022-08-03T06:01:18.380Z,100674.81
2022-08-03T06:03:46.370Z,100666.34
2022-08-03T06:06:13.284Z,100673.97
2022-08-03T06:08:41.277Z,100673.34
2022-08-03T06:11:09.090Z,100672.62
2022-08-03T06:13:36.638Z,100680.28
2022-08-03T06:16:03.912Z,100676.91
2022-08-03T06:18:31.036Z,100676.22
2022-08-03T06:20:58.118Z,100680.09
2022-08-03T06:23:54.517Z,100676.88
2022-08-03T06:26:27.569Z,100684.19
2022-08-03T06:28:54.978Z,100680.63
2022-08-03T06:31:32.872Z,100684.00
2022-08-03T06:34:34.145Z,100691.13
2022-08-03T06:36:52.905Z,100683.41
2022-08-03T06:39:23.539Z,100679.28
2022-08-03T06:41:51.123Z,100684.87
2022-08-03T06:44:18.008Z,100690.09
2022-08-03T06:46:44.950Z,100684.78
2022-08-03T06:49:11.932Z,100679.91
2022-08-03T06:52:37.461Z,100677.22
2022-08-03T06:54:25.762Z,100679.16
2022-08-03T06:56:52.698Z,100683.88
2022-08-03T07:00:10.184Z,100691.44
2022-08-03T07:02:07.538Z,100688.19
2022-08-03T07:04:34.392Z,100686.88
2022-08-03T07:07:01.725Z,100687.72
2022-08-03T07:09:28.846Z,100688.47
2022-08-03T07:11:55.819Z,100686.53
2022-08-03T07:14:23.002Z,100692.69
2022-08-03T07:16:49.867Z,100691.81
2022-08-03T07:19:17.406Z,100694.84
2022-08-03T07:21:45.480Z,100691.94
2022-08-03T07:24:12.315Z,100695.53
2022-08-03T07:26:39.265Z,100693.78
2022-08-03T07:29:10.911Z,100692.25
2022-08-03T07:31:42.309Z,100691.81
2022-08-03T07:34:09.359Z,100694.81
2022-08-03T07:36:36.234Z,100690.25
2022-08-03T07:39:15.998Z,100691.94
2022-08-03T07:41:46.046Z,100693.47
2022-08-03T07:44:13.345Z,100683.88
2022-08-03T07:46:40.225Z,100686.75
2022-08-03T07:49:07.286Z,100685.28
2022-08-03T07:51:34.448Z,100685.88
2022-08-03T07:54:01.558Z,100679.81
2022-08-03T07:56:29.096Z,100679.91
2022-08-03T07:58:56.660Z,100679.22
2022-08-03T08:01:23.799Z,100676.97
2022-08-03T08:03:53.522Z,100681.63
2022-08-03T08:06:21.705Z,100677.22
2022-08-03T08:08:48.801Z,100674.63
2022-08-03T08:11:15.851Z,100669.81
2022-08-03T08:13:42.695Z,100678.69
2022-08-03T08:16:09.632Z,100675.72
2022-08-03T08:18:36.478Z,100672.75
2022-08-03T08:21:03.531Z,100676.88
2022-08-03T08:23:42.479Z,100681.63
2022-08-03T08:26:11.353Z,100679.97
2022-08-03T08:28:38.528Z,100685.19
2022-08-03T08:31:05.516Z,100683.22
2022-08-03T08:34:02.798Z,100682.31
2022-08-03T08:36:21.810Z,100678.13
2022-08-03T08:38:48.700Z,100679.66
2022-08-03T08:41:16.262Z,100673.28
2022-08-03T08:43:43.528Z,100676.94
2022-08-03T08:46:23.496Z,100670.22
2022-08-03T08:48:51.877Z,100676.88
2022-08-03T08:51:20.732Z,100664.22
2022-08-03T08:53:53.839Z,100667.44
2022-08-03T08:56:25.473Z,100670.87
2022-08-03T08:58:56.976Z,100665.69
2022-08-03T09:01:23.881Z,100663.41
2022-08-03T09:03:51.417Z,100664.69
2022-08-03T09:06:18.373Z,100664.81
2022-08-03T09:08:45.209Z,100667.81
2022-08-03T09:11:12.806Z,100656.31
2022-08-03T09:13:39.991Z,100653.44
2022-08-03T09:16:21.738Z,100661.06
2022-08-03T09:18:52.200Z,100652.88
2022-08-03T09:21:32.238Z,100651.44
2022-08-03T09:24:03.220Z,100646.72
2022-08-03T09:26:31.799Z,100648.31
2022-08-03T09:29:10.871Z,100662.19
2022-08-03T09:31:46.024Z,100649.59
2022-08-03T09:34:17.452Z,100645.38
2022-08-03T09:36:50.563Z,100646.53
2022-08-03T09:39:19.520Z,100648.81
2022-08-03T09:42:07.977Z,100645.78
2022-08-03T09:44:45.056Z,100637.53
2022-08-03T09:47:14.514Z,100638.84
2022-08-03T09:49:56.123Z,100630.19
2022-08-03T09:52:38.179Z,100622.06
2022-08-03T09:56:30.500Z,100623.59
2022-08-03T09:58:07.201Z,100619.03
2022-08-03T10:00:54.192Z,100618.88
2022-08-03T10:03:21.722Z,100613.78
2022-08-03T10:05:48.605Z,100611.16
2022-08-03T10:08:17.288Z,100608.16
2022-08-03T10:10:46.162Z,100608.91
2022-08-03T10:13:20.139Z,100599.34
2022-08-03T10:16:21.712Z,100602.91
2022-08-03T10:18:34.321Z,100606.81
2022-08-03T10:21:07.825Z,100595.81
2022-08-03T10:23:35.966Z,100602.03
2022-08-03T10:26:04.894Z,100589.28
2022-08-03T10:28:42.805Z,100590.47
2022-08-03T10:31:13.149Z,100586.53
2022-08-03T10:33:50.277Z,100584.84
2022-08-03T10:36:23.948Z,100588.78
2022-08-03T10:38:53.691Z,100573.94
2022-08-03T10:41:23.395Z,100582.56
2022-08-03T10:44:04.150Z,100572.94
2022-08-03T10:46:31.823Z,100577.06
2022-08-03T10:48:59.921Z,100565.38
2022-08-03T10:51:32.078Z,100564.25
2022-08-03T10:54:01.782Z,100557.84
2022-08-03T10:56:50.837Z,100557.72
2022-08-03T10:59:46.114Z,100561.81
2022-08-03T11:02:14.392Z,100559.91
2022-08-03T11:04:42.849Z,100555.41
2022-08-03T11:07:25.744Z,100551.25
2022-08-03T11:09:55.871Z,100548.28
2022-08-03T11:12:32.158Z,100542.37
2022-08-03T11:15:06.663Z,100540.56
2022-08-03T11:17:46.647Z,100549.03
2022-08-03T11:20:47.339Z,100536.72
2022-08-03T11:23:15.778Z,100527.28
2022-08-03T11:26:17.488Z,100533.03
2022-08-03T11:28:46.538Z,100538.56
2022-08-03T11:31:47.223Z,100526.47
2022-08-03T11:34:11.223Z,100518.53
2022-08-03T11:37:16.054Z,100520.47
2022-08-03T11:39:46.744Z,100511.81
2022-08-03T11:42:22.907Z,100522.53
2022-08-03T11:45:00.331Z,100514.06
2022-08-03T11:47:30.061Z,100507.47
2022-08-03T11:50:00.689Z,100508.34
2022-08-03T11:52:33.971Z,100506.34
2022-08-03T11:55:01.286Z,100500.63
2022-08-03T11:59:10.876Z,100508.53
2022-08-03T12:00:28.634Z,100495.22
2022-08-03T12:03:06.860Z,100491.56
2022-08-03T12:05:48.083Z,100495.66
2022-08-03T12:08:31.188Z,100485.69
2022-08-03T12:11:01.287Z,100485.19
2022-08-03T12:14:44.122Z,100476.00
2022-08-03T12:16:25.817Z,100479.00
2022-08-03T12:19:04.916Z,100482.94
2022-08-03T12:21:31.859Z,100474.13
2022-08-03T12:24:04.056Z,100472.13
2022-08-03T12:26:43.214Z,100476.28
2022-08-03T12:29:21.072Z,100474.03
2022-08-03T12:31:49.883Z,100468.03
2022-08-03T12:34:16.903Z,100469.09
2022-08-03T12:36:57.012Z,100468.50
2022-08-03T12:39:26.411Z,100468.59
2022-08-03T12:41:54.906Z,100459.31
2022-08-03T12:44:35.211Z,100453.84
2022-08-03T12:47:03.647Z,100441.94
2022-08-03T12:49:48.367Z,100447.97
2022-08-03T12:52:16.255Z,100443.50
2022-08-03T12:54:53.904Z,100450.56
2022-08-03T12:57:21.197Z,100444.53
2022-08-03T12:59:55.977Z,100440.47
2022-08-03T13:02:25.431Z,100452.03
2022-08-03T13:04:53.988Z,100442.53
2022-08-03T13:07:22.195Z,100439.81
2022-08-03T13:09:56.073Z,100435.00
2022-08-03T13:12:25.653Z,100438.50
2022-08-03T13:14:55.680Z,100432.38
2022-08-03T13:17:22.869Z,100434.53
2022-08-03T13:19:50.992Z,100427.84
2022-08-03T13:22:20.096Z,100423.34
2022-08-03T13:24:49.035Z,100422.31
2022-08-03T13:28:09.862Z,100414.31
2022-08-03T13:30:07.858Z,100412.47
2022-08-03T13:32:35.084Z,100409.16
2022-08-03T13:35:04.927Z,100411.56
2022-08-03T13:37:32.490Z,100412.56
2022-08-03T13:40:02.689Z,100411.72
2022-08-03T13:42:32.359Z,100415.56
2022-08-03T13:45:00.597Z,100413.78
2022-08-03T13:47:27.902Z,100410.66
2022-08-03T13:50:01.133Z,100403.81
2022-08-03T13:52:34.258Z,100399.34
2022-08-03T13:55:02.385Z,100396.34
2022-08-03T13:58:02.507Z,100396.16
2022-08-03T14:00:27.614Z,100398.34
2022-08-03T14:03:02.920Z,100388.16
2022-08-03T14:05:33.001Z,100392.50
2022-08-03T14:08:05.822Z,100380.81
2022-08-03T14:10:37.326Z,100384.84
2022-08-03T14:13:05.198Z,100379.06
2022-08-03T14:15:32.240Z,100377.69
2022-08-03T14:18:04.293Z,100374.75
2022-08-03T14:20:37.303Z,100375.50
2022-08-03T14:23:07.058Z,100368.87
2022-08-03T14:25:44.180Z,100369.25
2022-08-03T14:28:24.991Z,100367.00
2022-08-03T14:30:53.855Z,100364.34
2022-08-03T14:33:21.002Z,100360.00
2022-08-03T14:35:49.099Z,100366.97
2022-08-03T14:38:16.479Z,100352.16
2022-08-03T14:40:43.854Z,100351.56
2022-08-03T14:43:11.117Z,100341.87
2022-08-03T14:45:39.346Z,100344.28
2022-08-03T14:50:30.973Z,100355.47
2022-08-03T14:50:55.213Z,100349.53
2022-08-03T14:53:22.520Z,100353.56
2022-08-03T14:55:51.589Z,100348.38
2022-08-03T14:58:21.508Z,100343.28
2022-08-03T15:00:50.029Z,100344.88
2022-08-03T15:03:20.564Z,100347.28
2022-08-03T15:05:47.741Z,100348.44
2022-08-03T15:08:14.708Z,100342.16
2022-08-03T15:10:44.807Z,100341.72
2022-08-03T15:13:17.686Z,100342.63
2022-08-03T15:15:44.663Z,100340.25
2022-08-03T15:18:11.598Z,100340.84
2022-08-03T15:20:45.035Z,100348.59
2022-08-03T15:23:14.202Z,100346.75
2022-08-03T15:26:28.086Z,100343.28
2022-08-03T15:28:27.959Z,100337.91
2022-08-03T15:30:54.892Z,100338.41
2022-08-03T15:33:21.911Z,100336.78
2022-08-03T15:35:49.881Z,100339.31
2022-08-03T15:38:16.944Z,100335.44
2022-08-03T15:40:44.051Z,100339.53
2022-08-03T15:43:11.087Z,100333.59
2022-08-03T15:45:38.071Z,100329.31
2022-08-03T15:48:06.064Z,100333.03
2022-08-03T15:50:33.052Z,100336.47
2022-08-03T15:52:59.907Z,100329.44
2022-08-03T15:55:27.311Z,100336.84
2022-08-03T15:59:10.876Z,100328.44
2022-08-03T16:00:42.683Z,100326.03
2022-08-03T16:03:10.618Z,100324.91
2022-08-03T16:05:37.576Z,100321.47
2022-08-03T16:08:07.126Z,100323.84
2022-08-03T16:10:37.371Z,100314.94
2022-08-03T16:13:04.270Z,100323.12
2022-08-03T16:15:31.121Z,100317.53
2022-08-03T16:17:58.122Z,100323.56
2022-08-03T16:20:30.827Z,100312.72
2022-08-03T16:23:04.144Z,100318.94
2022-08-03T16:25:41.935Z,100314.63
2022-08-03T16:28:13.932Z,100315.16
2022-08-03T16:30:42.994Z,100319.59
2022-08-03T16:33:11.276Z,100318.16
2022-08-03T16:35:44.372Z,100305.84
2022-08-03T16:38:14.192Z,100310.19
2022-08-03T16:40:45.874Z,100317.22
2022-08-03T16:43:18.178Z,100322.63
2022-08-03T16:45:46.868Z,100315.03
2022-08-03T16:48:15.147Z,100315.41
2022-08-03T16:50:42.313Z,100307.81
2022-08-03T16:53:15.715Z,100309.84
2022-08-03T16:55:53.463Z,100320.31
2022-08-03T16:58:41.161Z,100320.59
2022-08-03T17:01:24.120Z,100318.47
2022-08-03T17:04:02.726Z,100323.09
2022-08-03T17:06:37.172Z,100330.28
2022-08-03T17:09:10.065Z,100329.16
2022-08-03T17:11:46.514Z,100326.78
2022-08-03T17:14:28.563Z,100335.00
2022-08-03T17:17:01.072Z,100330.19
2022-08-03T17:19:32.565Z,100328.31
2022-08-03T17:22:10.627Z,100331.16
2022-08-03T17:24:41.395Z,100334.63
2022-08-03T17:28:41.728Z,100341.81
2022-08-03T17:30:10.402Z,100340.62
2022-08-03T17:32:42.271Z,100341.09
2022-08-03T17:35:10.613Z,100348.28
2022-08-03T17:37:57.947Z,100346.34
2022-08-03T17:40:24.735Z,100348.34
2022-08-03T17:42:52.670Z,100356.75
2022-08-03T17:45:20.346Z,100351.59
2022-08-03T17:47:57.077Z,100347.97
2022-08-03T17:50:37.081Z,100352.47
2022-08-03T17:53:15.103Z,100347.34
2022-08-03T17:55:52.053Z,100351.25
2022-08-03T17:58:55.039Z,100353.31
2022-08-03T18:02:26.519Z,100353.31
2022-08-03T18:05:15.955Z,100352.09
2022-08-03T18:07:59.532Z,100352.06
2022-08-03T18:10:35.095Z,100355.47
2022-08-03T18:13:11.240Z,100354.44
2022-08-03T18:15:43.740Z,100365.50
2022-08-03T18:18:14.635Z,100365.69
2022-08-03T18:20:45.463Z,100364.03
2022-08-03T18:23:25.318Z,100366.63
2022-08-03T18:26:02.583Z,100371.19
2022-08-03T18:28:32.307Z,100375.50
2022-08-03T18:31:05.570Z,100378.97
2022-08-03T18:34:19.088Z,100375.25
2022-08-03T18:36:30.179Z,100385.03
2022-08-03T18:39:02.350Z,100382.44
2022-08-03T18:41:32.961Z,100382.00
2022-08-03T18:44:07.923Z,100379.84
2022-08-03T18:46:50.095Z,100386.59
2022-08-03T18:49:39.978Z,100396.03
2022-08-03T18:52:17.762Z,100395.72
2022-08-03T18:55:20.243Z,100397.44
2022-08-03T18:58:17.795Z,100402.84
2022-08-03T19:01:59.738Z,100409.84
2022-08-03T19:04:34.062Z,100409.78
2022-08-03T19:07:11.061Z,100419.09
2022-08-03T19:09:54.845Z,100411.19
2022-08-03T19:12:37.406Z,100418.84
2022-08-03T19:15:13.270Z,100421.88
2022-08-03T19:17:50.087Z,100423.69
2022-08-03T19:20:28.219Z,100422.12
2022-08-03T19:22:56.956Z,100427.84
2022-08-03T19:25:34.413Z,100434.38
2022-08-03T19:28:06.109Z,100425.34
2022-08-03T19:30:46.433Z,100431.50
2022-08-03T19:33:21.316Z,100431.09
2022-08-03T19:35:55.090Z,100431.38
2022-08-03T19:38:38.463Z,100435.34
2022-08-03T19:41:14.403Z,100433.84
2022-08-03T19:43:57.549Z,100442.56
2022-08-03T19:46:30.314Z,100443.81
2022-08-03T19:49:10.579Z,100441.81
2022-08-03T19:52:00.807Z,100439.47
2022-08-03T19:54:53.579Z,100443.91
2022-08-03T19:57:25.407Z,100447.19
2022-08-03T19:59:54.901Z,100447.19
2022-08-03T20:02:27.229Z,100455.47
2022-08-03T20:04:57.403Z,100445.19
2022-08-03T20:07:26.228Z,100449.31
2022-08-03T20:09:57.065Z,100467.22
2022-08-03T20:12:29.017Z,100465.03
2022-08-03T20:14:58.158Z,100462.41
2022-08-03T20:17:56.289Z,100468.72
2022-08-03T20:20:25.812Z,100455.13
2022-08-03T20:22:57.618Z,100464.41
2022-08-03T20:25:48.855Z,100461.69
2022-08-03T20:28:35.102Z,100460.69
2022-08-03T20:31:17.693Z,100463.75
2022-08-03T20:33:48.802Z,100465.22
2022-08-03T20:36:18.430Z,100462.28
2022-08-03T20:38:48.167Z,100462.97
2022-08-03T20:41:19.089Z,100458.22
2022-08-03T20:43:49.299Z,100452.41
2022-08-03T20:46:30.006Z,100457.37
2022-08-03T20:49:03.780Z,100460.06
2022-08-03T20:51:53.317Z,100458.44
2022-08-03T20:54:29.118Z,100457.69
2022-08-03T20:56:58.270Z,100457.28
2022-08-03T20:59:35.063Z,100460.47
2022-08-03T21:02:19.768Z,100452.44
2022-08-03T21:05:03.019Z,100457.81
2022-08-03T21:08:04.021Z,100459.09
2022-08-03T21:10:29.536Z,100473.69
2022-08-03T21:13:22.687Z,100464.16
2022-08-03T21:16:06.434Z,100478.47
2022-08-03T21:18:50.269Z,100474.56
2022-08-03T21:21:19.560Z,100485.00
2022-08-03T21:23:51.293Z,100478.41
2022-08-03T21:26:20.226Z,100479.31
2022-08-03T21:28:52.090Z,100478.97
2022-08-03T21:31:24.790Z,100478.00
2022-08-03T21:33:58.145Z,100481.91
2022-08-03T21:36:28.636Z,100480.28
2022-08-03T21:38:58.016Z,100485.78
2022-08-03T21:41:32.204Z,100493.25
2022-08-03T21:44:01.003Z,100486.97
2022-08-03T21:46:35.057Z,100495.06
2022-08-03T21:50:04.785Z,100491.16
2022-08-03T21:51:54.507Z,100493.25
2022-08-03T21:54:23.935Z,100489.09
2022-08-03T21:56:51.402Z,100497.87
2022-08-03T21:59:20.259Z,100496.97
2022-08-03T22:01:49.393Z,100498.75
2022-08-03T22:04:53.600Z,100485.63
2022-08-03T22:07:09.037Z,100507.41
2022-08-03T22:09:36.880Z,100498.03
2022-08-03T22:12:04.595Z,100511.16
2022-08-03T22:14:34.627Z,100508.34
2022-08-03T22:17:06.240Z,100512.06
2022-08-03T22:19:33.675Z,100502.41
2022-08-03T22:22:06.096Z,100507.28
2022-08-03T22:24:36.550Z,100510.50
2022-08-03T22:27:23.251Z,100520.84
2022-08-03T22:29:52.805Z,100520.50
2022-08-03T22:32:20.505Z,100526.00
2022-08-03T22:34:49.761Z,100515.81
2022-08-03T22:37:19.238Z,100515.03
2022-08-03T22:39:46.978Z,100525.37
2022-08-03T22:42:14.121Z,100522.88
2022-08-03T22:44:40.965Z,100524.13
2022-08-03T22:47:09.767Z,100527.22
2022-08-03T22:49:37.882Z,100527.69
2022-08-03T22:52:06.182Z,100528.56
2022-08-03T22:54:34.066Z,100531.00
2022-08-03T22:57:01.169Z,100534.38
2022-08-03T22:59:38.855Z,100533.69
2022-08-03T23:02:21.766Z,100544.78
2022-08-03T23:04:56.640Z,100544.38
2022-08-03T23:07:35.705Z,100545.34
2022-08-03T23:10:09.635Z,100548.13
2022-08-03T23:12:39.694Z,100548.63
2022-08-03T23:15:10.060Z,100542.63
2022-08-03T23:17:57.480Z,100553.62
2022-08-03T23:20:26.979Z,100558.44
2022-08-03T23:22:57.874Z,100549.94
2022-08-03T23:25:25.302Z,100552.03
2022-08-03T23:28:05.715Z,100558.19
2022-08-03T23:30:37.404Z,100554.63
2022-08-03T23:33:04.630Z,100540.56
2022-08-03T23:36:18.787Z,100557.44
2022-08-03T23:38:37.155Z,100556.38
2022-08-03T23:41:05.177Z,100559.09
2022-08-03T23:46:21.738Z,100556.66
2022-08-03T23:48:48.738Z,100545.72
2022-08-03T23:51:37.929Z,100553.28
2022-08-03T23:54:28.792Z,100554.63
2022-08-03T23:57:23.058Z,100548.25
